sensor_id;sensor_type;location;lat;lon;timestamp;P1;durP1;ratioP1;P2;durP2;ratioP2
7669;SDS011;3877;42.562;27.636;2023-04-01T00:02:12;39.60;;;27.70;;
7669;SDS011;3877;42.562;27.636;2023-04-01T00:04:40;40.43;;;29.23;;
7669;SDS011;3877;42.562;27.636;2023-04-01T00:07:07;38.37;;;29.30;;
7669;SDS011;3877;42.562;27.636;2023-04-01T00:09:34;39.27;;;27.53;;
7669;SDS011;3877;42.562;27.636;2023-04-01T00:12:01;40.73;;;27.87;;
7669;SDS011;3877;42.562;27.636;2023-04-01T00:14:28;34.67;;;26.83;;
7669;SDS011;3877;42.562;27.636;2023-04-01T00:16:55;38.87;;;26.53;;
7669;SDS011;3877;42.562;27.636;2023-04-01T00:19:22;40.73;;;28.67;;
7669;SDS011;3877;42.562;27.636;2023-04-01T00:21:50;35.60;;;25.27;;
7669;SDS011;3877;42.562;27.636;2023-04-01T00:24:17;34.80;;;26.40;;
7669;SDS011;3877;42.562;27.636;2023-04-01T00:26:44;40.80;;;27.87;;
7669;SDS011;3877;42.562;27.636;2023-04-01T00:29:12;37.40;;;28.33;;
7669;SDS011;3877;42.562;27.636;2023-04-01T00:31:39;35.83;;;26.60;;
7669;SDS011;3877;42.562;27.636;2023-04-01T00:34:06;37.80;;;27.77;;
7669;SDS011;3877;42.562;27.636;2023-04-01T00:36:33;41.60;;;28.40;;
7669;SDS011;3877;42.562;27.636;2023-04-01T00:39:01;46.37;;;31.97;;
7669;SDS011;3877;42.562;27.636;2023-04-01T00:41:28;45.10;;;32.80;;
7669;SDS011;3877;42.562;27.636;2023-04-01T00:46:37;42.83;;;31.60;;
7669;SDS011;3877;42.562;27.636;2023-04-01T00:49:04;44.90;;;30.53;;
7669;SDS011;3877;42.562;27.636;2023-04-01T00:51:30;49.17;;;32.33;;
7669;SDS011;3877;42.562;27.636;2023-04-01T00:54:02;41.73;;;32.47;;
7669;SDS011;3877;42.562;27.636;2023-04-01T00:56:30;45.60;;;33.63;;
7669;SDS011;3877;42.562;27.636;2023-04-01T00:59:00;40.70;;;31.70;;
7669;SDS011;3877;42.562;27.636;2023-04-01T01:01:28;44.10;;;32.87;;
7669;SDS011;3877;42.562;27.636;2023-04-01T01:03:56;38.70;;;29.50;;
7669;SDS011;3877;42.562;27.636;2023-04-01T01:06:25;42.70;;;30.07;;
7669;SDS011;3877;42.562;27.636;2023-04-01T01:08:58;43.97;;;31.87;;
7669;SDS011;3877;42.562;27.636;2023-04-01T01:11:35;44.73;;;30.80;;
7669;SDS011;3877;42.562;27.636;2023-04-01T01:14:04;46.30;;;32.83;;
7669;SDS011;3877;42.562;27.636;2023-04-01T01:16:36;39.60;;;30.33;;
7669;SDS011;3877;42.562;27.636;2023-04-01T01:19:06;39.50;;;28.47;;
7669;SDS011;3877;42.562;27.636;2023-04-01T01:21:45;40.70;;;27.70;;
7669;SDS011;3877;42.562;27.636;2023-04-01T01:24:22;35.70;;;27.47;;
7669;SDS011;3877;42.562;27.636;2023-04-01T01:26:57;38.97;;;27.33;;
7669;SDS011;3877;42.562;27.636;2023-04-01T01:29:34;41.50;;;28.60;;
7669;SDS011;3877;42.562;27.636;2023-04-01T01:32:09;41.17;;;27.23;;
7669;SDS011;3877;42.562;27.636;2023-04-01T01:34:40;38.90;;;26.70;;
7669;SDS011;3877;42.562;27.636;2023-04-01T01:37:12;39.73;;;25.40;;
7669;SDS011;3877;42.562;27.636;2023-04-01T01:39:40;31.13;;;22.97;;
7669;SDS011;3877;42.562;27.636;2023-04-01T01:42:09;32.90;;;23.10;;
7669;SDS011;3877;42.562;27.636;2023-04-01T01:44:37;40.93;;;27.60;;
7669;SDS011;3877;42.562;27.636;2023-04-01T01:47:05;32.70;;;24.77;;
7669;SDS011;3877;42.562;27.636;2023-04-01T01:49:32;36.33;;;23.07;;
7669;SDS011;3877;42.562;27.636;2023-04-01T01:52:00;34.67;;;25.07;;
7669;SDS011;3877;42.562;27.636;2023-04-01T01:54:28;35.33;;;25.57;;
7669;SDS011;3877;42.562;27.636;2023-04-01T01:56:55;32.03;;;23.30;;
7669;SDS011;3877;42.562;27.636;2023-04-01T01:59:26;29.40;;;20.20;;
7669;SDS011;3877;42.562;27.636;2023-04-01T02:01:54;29.17;;;20.27;;
7669;SDS011;3877;42.562;27.636;2023-04-01T02:04:22;30.70;;;21.13;;
7669;SDS011;3877;42.562;27.636;2023-04-01T02:06:50;29.33;;;21.97;;
7669;SDS011;3877;42.562;27.636;2023-04-01T02:09:18;34.43;;;20.10;;
7669;SDS011;3877;42.562;27.636;2023-04-01T02:11:47;30.23;;;20.50;;
7669;SDS011;3877;42.562;27.636;2023-04-01T02:14:15;28.83;;;19.70;;
7669;SDS011;3877;42.562;27.636;2023-04-01T02:16:44;31.73;;;21.60;;
7669;SDS011;3877;42.562;27.636;2023-04-01T02:19:11;31.80;;;19.17;;
7669;SDS011;3877;42.562;27.636;2023-04-01T02:21:39;30.97;;;19.77;;
7669;SDS011;3877;42.562;27.636;2023-04-01T02:24:09;28.80;;;20.87;;
7669;SDS011;3877;42.562;27.636;2023-04-01T02:26:38;28.40;;;19.90;;
7669;SDS011;3877;42.562;27.636;2023-04-01T02:29:06;31.40;;;21.17;;
7669;SDS011;3877;42.562;27.636;2023-04-01T02:31:35;29.77;;;19.30;;
7669;SDS011;3877;42.562;27.636;2023-04-01T02:34:02;28.93;;;18.37;;
7669;SDS011;3877;42.562;27.636;2023-04-01T02:36:30;29.97;;;19.03;;
7669;SDS011;3877;42.562;27.636;2023-04-01T02:38:57;30.93;;;19.10;;
7669;SDS011;3877;42.562;27.636;2023-04-01T02:41:27;29.00;;;19.63;;
7669;SDS011;3877;42.562;27.636;2023-04-01T02:43:54;34.63;;;20.57;;
7669;SDS011;3877;42.562;27.636;2023-04-01T02:46:23;31.97;;;21.33;;
7669;SDS011;3877;42.562;27.636;2023-04-01T02:48:50;35.47;;;21.50;;
7669;SDS011;3877;42.562;27.636;2023-04-01T02:51:18;31.03;;;20.20;;
7669;SDS011;3877;42.562;27.636;2023-04-01T02:53:45;25.83;;;18.87;;
7669;SDS011;3877;42.562;27.636;2023-04-01T02:56:12;32.03;;;21.87;;
7669;SDS011;3877;42.562;27.636;2023-04-01T02:58:39;35.60;;;21.47;;
7669;SDS011;3877;42.562;27.636;2023-04-01T03:01:06;27.30;;;20.50;;
7669;SDS011;3877;42.562;27.636;2023-04-01T03:03:35;26.00;;;19.43;;
7669;SDS011;3877;42.562;27.636;2023-04-01T03:06:04;30.57;;;20.20;;
7669;SDS011;3877;42.562;27.636;2023-04-01T03:08:31;32.33;;;20.20;;
7669;SDS011;3877;42.562;27.636;2023-04-01T03:10:58;30.40;;;21.00;;
7669;SDS011;3877;42.562;27.636;2023-04-01T03:13:25;30.27;;;22.33;;
7669;SDS011;3877;42.562;27.636;2023-04-01T03:15:52;37.80;;;23.67;;
7669;SDS011;3877;42.562;27.636;2023-04-01T03:18:19;37.67;;;25.53;;
7669;SDS011;3877;42.562;27.636;2023-04-01T03:20:47;31.83;;;22.53;;
7669;SDS011;3877;42.562;27.636;2023-04-01T03:23:14;31.47;;;21.33;;
7669;SDS011;3877;42.562;27.636;2023-04-01T03:25:42;34.70;;;22.07;;
7669;SDS011;3877;42.562;27.636;2023-04-01T03:28:09;32.40;;;21.30;;
7669;SDS011;3877;42.562;27.636;2023-04-01T03:30:37;30.87;;;21.07;;
7669;SDS011;3877;42.562;27.636;2023-04-01T03:33:04;34.77;;;21.33;;
7669;SDS011;3877;42.562;27.636;2023-04-01T03:35:31;40.70;;;21.37;;
7669;SDS011;3877;42.562;27.636;2023-04-01T03:37:59;38.63;;;25.73;;
7669;SDS011;3877;42.562;27.636;2023-04-01T03:40:26;41.03;;;23.17;;
7669;SDS011;3877;42.562;27.636;2023-04-01T03:42:53;34.87;;;23.03;;
7669;SDS011;3877;42.562;27.636;2023-04-01T03:45:21;36.90;;;23.03;;
7669;SDS011;3877;42.562;27.636;2023-04-01T03:47:48;31.90;;;23.70;;
7669;SDS011;3877;42.562;27.636;2023-04-01T03:50:15;40.10;;;24.13;;
7669;SDS011;3877;42.562;27.636;2023-04-01T03:52:42;45.90;;;23.97;;
7669;SDS011;3877;42.562;27.636;2023-04-01T03:55:10;36.10;;;22.13;;
7669;SDS011;3877;42.562;27.636;2023-04-01T03:57:37;35.53;;;24.80;;
7669;SDS011;3877;42.562;27.636;2023-04-01T04:00:04;43.20;;;25.47;;
7669;SDS011;3877;42.562;27.636;2023-04-01T04:02:31;43.83;;;27.47;;
7669;SDS011;3877;42.562;27.636;2023-04-01T04:04:58;58.77;;;34.63;;
7669;SDS011;3877;42.562;27.636;2023-04-01T04:07:25;44.03;;;28.33;;
7669;SDS011;3877;42.562;27.636;2023-04-01T04:09:52;39.00;;;26.07;;
7669;SDS011;3877;42.562;27.636;2023-04-01T04:12:20;36.60;;;24.83;;
7669;SDS011;3877;42.562;27.636;2023-04-01T04:14:47;32.70;;;21.83;;
7669;SDS011;3877;42.562;27.636;2023-04-01T04:17:14;33.10;;;21.93;;
7669;SDS011;3877;42.562;27.636;2023-04-01T04:19:41;28.83;;;20.50;;
7669;SDS011;3877;42.562;27.636;2023-04-01T04:22:08;35.10;;;22.67;;
7669;SDS011;3877;42.562;27.636;2023-04-01T04:24:35;39.07;;;25.13;;
7669;SDS011;3877;42.562;27.636;2023-04-01T04:27:02;33.40;;;25.83;;
7669;SDS011;3877;42.562;27.636;2023-04-01T04:29:30;41.80;;;26.27;;
7669;SDS011;3877;42.562;27.636;2023-04-01T04:31:57;32.40;;;24.67;;
7669;SDS011;3877;42.562;27.636;2023-04-01T04:34:24;41.70;;;29.00;;
7669;SDS011;3877;42.562;27.636;2023-04-01T04:36:50;47.53;;;33.90;;
7669;SDS011;3877;42.562;27.636;2023-04-01T04:39:17;40.27;;;29.00;;
7669;SDS011;3877;42.562;27.636;2023-04-01T04:41:44;30.53;;;23.97;;
7669;SDS011;3877;42.562;27.636;2023-04-01T04:44:11;31.47;;;21.37;;
7669;SDS011;3877;42.562;27.636;2023-04-01T04:46:39;30.98;;;23.08;;
7669;SDS011;3877;42.562;27.636;2023-04-01T04:49:06;40.23;;;26.20;;
7669;SDS011;3877;42.562;27.636;2023-04-01T04:51:33;48.63;;;27.23;;
7669;SDS011;3877;42.562;27.636;2023-04-01T04:54:01;25.47;;;17.03;;
7669;SDS011;3877;42.562;27.636;2023-04-01T04:56:28;26.50;;;16.77;;
7669;SDS011;3877;42.562;27.636;2023-04-01T04:58:55;16.63;;;13.18;;
7669;SDS011;3877;42.562;27.636;2023-04-01T05:01:22;22.95;;;12.65;;
7669;SDS011;3877;42.562;27.636;2023-04-01T05:03:51;17.73;;;10.97;;
7669;SDS011;3877;42.562;27.636;2023-04-01T05:06:18;15.93;;;10.93;;
7669;SDS011;3877;42.562;27.636;2023-04-01T05:08:45;12.27;;;9.30;;
7669;SDS011;3877;42.562;27.636;2023-04-01T05:11:13;15.00;;;8.63;;
7669;SDS011;3877;42.562;27.636;2023-04-01T05:13:40;14.98;;;8.30;;
7669;SDS011;3877;42.562;27.636;2023-04-01T05:16:08;13.02;;;8.75;;
7669;SDS011;3877;42.562;27.636;2023-04-01T05:18:35;30.52;;;16.52;;
7669;SDS011;3877;42.562;27.636;2023-04-01T05:21:03;32.75;;;16.80;;
7669;SDS011;3877;42.562;27.636;2023-04-01T05:23:31;27.13;;;14.95;;
7669;SDS011;3877;42.562;27.636;2023-04-01T05:25:58;18.45;;;12.20;;
7669;SDS011;3877;42.562;27.636;2023-04-01T05:28:24;20.08;;;11.35;;
7669;SDS011;3877;42.562;27.636;2023-04-01T05:30:51;17.25;;;11.82;;
7669;SDS011;3877;42.562;27.636;2023-04-01T05:33:18;14.63;;;11.40;;
7669;SDS011;3877;42.562;27.636;2023-04-01T05:35:45;17.77;;;13.18;;
7669;SDS011;3877;42.562;27.636;2023-04-01T05:38:13;20.58;;;11.30;;
7669;SDS011;3877;42.562;27.636;2023-04-01T05:40:40;20.55;;;11.50;;
7669;SDS011;3877;42.562;27.636;2023-04-01T05:43:06;15.60;;;11.53;;
7669;SDS011;3877;42.562;27.636;2023-04-01T05:45:33;17.67;;;11.80;;
7669;SDS011;3877;42.562;27.636;2023-04-01T05:48:00;18.50;;;11.52;;
7669;SDS011;3877;42.562;27.636;2023-04-01T05:50:27;16.70;;;11.37;;
7669;SDS011;3877;42.562;27.636;2023-04-01T05:52:54;15.02;;;10.30;;
7669;SDS011;3877;42.562;27.636;2023-04-01T05:55:23;20.23;;;10.33;;
7669;SDS011;3877;42.562;27.636;2023-04-01T05:57:49;18.23;;;10.07;;
7669;SDS011;3877;42.562;27.636;2023-04-01T06:00:17;17.57;;;11.07;;
7669;SDS011;3877;42.562;27.636;2023-04-01T06:02:45;21.52;;;11.52;;
7669;SDS011;3877;42.562;27.636;2023-04-01T06:05:13;19.60;;;11.80;;
7669;SDS011;3877;42.562;27.636;2023-04-01T06:07:40;15.57;;;11.68;;
7669;SDS011;3877;42.562;27.636;2023-04-01T06:10:10;15.53;;;11.30;;
7669;SDS011;3877;42.562;27.636;2023-04-01T06:12:41;22.77;;;11.87;;
7669;SDS011;3877;42.562;27.636;2023-04-01T06:15:13;24.90;;;11.07;;
7669;SDS011;3877;42.562;27.636;2023-04-01T06:17:47;18.90;;;11.52;;
7669;SDS011;3877;42.562;27.636;2023-04-01T06:20:17;16.77;;;11.87;;
7669;SDS011;3877;42.562;27.636;2023-04-01T06:23:00;21.50;;;12.98;;
7669;SDS011;3877;42.562;27.636;2023-04-01T06:25:38;20.73;;;11.00;;
7669;SDS011;3877;42.562;27.636;2023-04-01T06:28:20;15.83;;;10.23;;
7669;SDS011;3877;42.562;27.636;2023-04-01T06:30:51;16.20;;;10.40;;
7669;SDS011;3877;42.562;27.636;2023-04-01T06:33:30;20.60;;;11.13;;
7669;SDS011;3877;42.562;27.636;2023-04-01T06:36:03;18.03;;;9.63;;
7669;SDS011;3877;42.562;27.636;2023-04-01T06:38:38;28.07;;;11.23;;
7669;SDS011;3877;42.562;27.636;2023-04-01T06:41:27;18.48;;;10.90;;
7669;SDS011;3877;42.562;27.636;2023-04-01T06:44:04;18.73;;;10.40;;
7669;SDS011;3877;42.562;27.636;2023-04-01T06:46:36;19.20;;;9.63;;
7669;SDS011;3877;42.562;27.636;2023-04-01T06:49:07;16.20;;;9.70;;
7669;SDS011;3877;42.562;27.636;2023-04-01T06:51:40;17.67;;;8.83;;
7669;SDS011;3877;42.562;27.636;2023-04-01T06:54:10;18.20;;;9.73;;
7669;SDS011;3877;42.562;27.636;2023-04-01T06:56:40;17.65;;;9.90;;
7669;SDS011;3877;42.562;27.636;2023-04-01T06:59:10;14.57;;;8.83;;
7669;SDS011;3877;42.562;27.636;2023-04-01T07:01:39;20.53;;;8.70;;
7669;SDS011;3877;42.562;27.636;2023-04-01T07:04:09;13.33;;;8.53;;
7669;SDS011;3877;42.562;27.636;2023-04-01T07:06:38;17.37;;;8.70;;
7669;SDS011;3877;42.562;27.636;2023-04-01T07:09:06;14.03;;;7.10;;
7669;SDS011;3877;42.562;27.636;2023-04-01T07:11:35;29.43;;;9.40;;
7669;SDS011;3877;42.562;27.636;2023-04-01T07:14:04;21.03;;;7.70;;
7669;SDS011;3877;42.562;27.636;2023-04-01T07:16:37;16.13;;;7.63;;
7669;SDS011;3877;42.562;27.636;2023-04-01T07:19:08;27.97;;;9.50;;
7669;SDS011;3877;42.562;27.636;2023-04-01T07:21:39;15.30;;;8.23;;
7669;SDS011;3877;42.562;27.636;2023-04-01T07:24:09;23.33;;;8.60;;
7669;SDS011;3877;42.562;27.636;2023-04-01T07:26:36;34.13;;;16.57;;
7669;SDS011;3877;42.562;27.636;2023-04-01T07:29:04;16.33;;;8.53;;
7669;SDS011;3877;42.562;27.636;2023-04-01T07:31:38;19.43;;;8.53;;
7669;SDS011;3877;42.562;27.636;2023-04-01T07:34:11;18.43;;;8.77;;
7669;SDS011;3877;42.562;27.636;2023-04-01T07:36:41;20.37;;;8.70;;
7669;SDS011;3877;42.562;27.636;2023-04-01T07:39:11;20.95;;;9.20;;
7669;SDS011;3877;42.562;27.636;2023-04-01T07:41:42;18.98;;;9.38;;
7669;SDS011;3877;42.562;27.636;2023-04-01T07:44:13;17.80;;;8.93;;
7669;SDS011;3877;42.562;27.636;2023-04-01T07:46:55;16.05;;;8.75;;
7669;SDS011;3877;42.562;27.636;2023-04-01T07:49:28;19.58;;;9.23;;
7669;SDS011;3877;42.562;27.636;2023-04-01T07:51:58;14.50;;;8.52;;
7669;SDS011;3877;42.562;27.636;2023-04-01T07:54:28;25.85;;;8.93;;
7669;SDS011;3877;42.562;27.636;2023-04-01T07:56:57;18.38;;;9.32;;
7669;SDS011;3877;42.562;27.636;2023-04-01T07:59:27;17.23;;;9.00;;
7669;SDS011;3877;42.562;27.636;2023-04-01T08:01:58;18.55;;;8.55;;
7669;SDS011;3877;42.562;27.636;2023-04-01T08:04:30;16.98;;;8.77;;
7669;SDS011;3877;42.562;27.636;2023-04-01T08:06:59;15.45;;;8.60;;
7669;SDS011;3877;42.562;27.636;2023-04-01T08:09:32;25.38;;;12.07;;
7669;SDS011;3877;42.562;27.636;2023-04-01T08:12:08;20.35;;;10.05;;
7669;SDS011;3877;42.562;27.636;2023-04-01T08:14:41;19.17;;;9.45;;
7669;SDS011;3877;42.562;27.636;2023-04-01T08:17:11;18.00;;;8.85;;
7669;SDS011;3877;42.562;27.636;2023-04-01T08:19:49;18.05;;;9.00;;
7669;SDS011;3877;42.562;27.636;2023-04-01T08:22:19;17.50;;;9.80;;
7669;SDS011;3877;42.562;27.636;2023-04-01T08:24:46;28.70;;;11.38;;
7669;SDS011;3877;42.562;27.636;2023-04-01T08:27:16;27.80;;;12.93;;
7669;SDS011;3877;42.562;27.636;2023-04-01T08:29:46;26.75;;;14.88;;
7669;SDS011;3877;42.562;27.636;2023-04-01T08:32:16;19.10;;;9.77;;
7669;SDS011;3877;42.562;27.636;2023-04-01T08:34:46;21.17;;;10.52;;
7669;SDS011;3877;42.562;27.636;2023-04-01T08:37:14;18.90;;;10.50;;
7669;SDS011;3877;42.562;27.636;2023-04-01T08:39:44;24.35;;;12.18;;
7669;SDS011;3877;42.562;27.636;2023-04-01T08:42:31;20.85;;;11.40;;
7669;SDS011;3877;42.562;27.636;2023-04-01T08:45:09;23.67;;;11.88;;
7669;SDS011;3877;42.562;27.636;2023-04-01T08:53:15;21.27;;;9.80;;
7669;SDS011;3877;42.562;27.636;2023-04-01T08:55:51;22.15;;;9.40;;
7669;SDS011;3877;42.562;27.636;2023-04-01T09:01:19;24.38;;;10.80;;
7669;SDS011;3877;42.562;27.636;2023-04-01T09:03:52;22.88;;;10.40;;
7669;SDS011;3877;42.562;27.636;2023-04-01T09:06:26;27.33;;;10.85;;
7669;SDS011;3877;42.562;27.636;2023-04-01T09:09:02;22.05;;;9.02;;
7669;SDS011;3877;42.562;27.636;2023-04-01T09:11:34;19.58;;;7.72;;
7669;SDS011;3877;42.562;27.636;2023-04-01T09:19:52;26.45;;;10.63;;
7669;SDS011;3877;42.562;27.636;2023-04-01T09:22:30;20.45;;;8.70;;
7669;SDS011;3877;42.562;27.636;2023-04-01T09:27:47;24.58;;;10.27;;
7669;SDS011;3877;42.562;27.636;2023-04-01T09:30:36;20.42;;;9.60;;
7669;SDS011;3877;42.562;27.636;2023-04-01T09:36:02;21.48;;;9.10;;
7669;SDS011;3877;42.562;27.636;2023-04-01T09:38:31;21.98;;;8.20;;
7669;SDS011;3877;42.562;27.636;2023-04-01T09:41:07;18.85;;;8.05;;
7669;SDS011;3877;42.562;27.636;2023-04-01T09:43:44;14.57;;;6.93;;
7669;SDS011;3877;42.562;27.636;2023-04-01T09:46:15;17.60;;;6.90;;
7669;SDS011;3877;42.562;27.636;2023-04-01T09:48:57;21.35;;;5.88;;
7669;SDS011;3877;42.562;27.636;2023-04-01T09:51:29;13.55;;;4.97;;
7669;SDS011;3877;42.562;27.636;2023-04-01T09:54:02;17.58;;;5.07;;
7669;SDS011;3877;42.562;27.636;2023-04-01T09:56:41;16.90;;;5.00;;
7669;SDS011;3877;42.562;27.636;2023-04-01T10:07:33;13.57;;;5.05;;
7669;SDS011;3877;42.562;27.636;2023-04-01T10:10:18;19.20;;;5.53;;
7669;SDS011;3877;42.562;27.636;2023-04-01T10:12:54;16.67;;;4.82;;
7669;SDS011;3877;42.562;27.636;2023-04-01T10:15:34;15.10;;;5.07;;
7669;SDS011;3877;42.562;27.636;2023-04-01T10:20:55;17.33;;;4.75;;
7669;SDS011;3877;42.562;27.636;2023-04-01T10:26:27;20.85;;;4.85;;
7669;SDS011;3877;42.562;27.636;2023-04-01T10:29:01;19.88;;;5.05;;
7669;SDS011;3877;42.562;27.636;2023-04-01T10:31:42;17.13;;;5.10;;
7669;SDS011;3877;42.562;27.636;2023-04-01T10:34:24;16.52;;;5.05;;
7669;SDS011;3877;42.562;27.636;2023-04-01T10:36:57;13.27;;;4.70;;
7669;SDS011;3877;42.562;27.636;2023-04-01T10:39:34;15.77;;;5.50;;
7669;SDS011;3877;42.562;27.636;2023-04-01T10:45:03;17.23;;;5.18;;
7669;SDS011;3877;42.562;27.636;2023-04-01T10:47:47;16.33;;;4.82;;
7669;SDS011;3877;42.562;27.636;2023-04-01T10:50:21;18.20;;;4.47;;
7669;SDS011;3877;42.562;27.636;2023-04-01T10:53:01;17.42;;;4.78;;
7669;SDS011;3877;42.562;27.636;2023-04-01T10:55:36;15.75;;;4.70;;
7669;SDS011;3877;42.562;27.636;2023-04-01T11:01:09;14.15;;;4.22;;
7669;SDS011;3877;42.562;27.636;2023-04-01T11:06:48;13.30;;;4.22;;
7669;SDS011;3877;42.562;27.636;2023-04-01T11:23:12;16.40;;;4.32;;
7669;SDS011;3877;42.562;27.636;2023-04-01T11:25:49;17.52;;;4.85;;
7669;SDS011;3877;42.562;27.636;2023-04-01T11:28:24;22.40;;;5.63;;
7669;SDS011;3877;42.562;27.636;2023-04-01T11:30:58;17.85;;;5.10;;
7669;SDS011;3877;42.562;27.636;2023-04-01T11:33:31;20.90;;;6.35;;
7669;SDS011;3877;42.562;27.636;2023-04-01T11:36:04;19.38;;;6.47;;
7669;SDS011;3877;42.562;27.636;2023-04-01T11:38:40;17.92;;;7.30;;
7669;SDS011;3877;42.562;27.636;2023-04-01T11:41:13;14.90;;;6.57;;
7669;SDS011;3877;42.562;27.636;2023-04-01T11:43:43;17.50;;;6.68;;
7669;SDS011;3877;42.562;27.636;2023-04-01T11:46:15;15.85;;;6.43;;
7669;SDS011;3877;42.562;27.636;2023-04-01T11:48:55;21.20;;;7.00;;
7669;SDS011;3877;42.562;27.636;2023-04-01T11:51:31;15.80;;;6.15;;
7669;SDS011;3877;42.562;27.636;2023-04-01T11:54:03;16.35;;;6.32;;
7669;SDS011;3877;42.562;27.636;2023-04-01T11:56:37;28.15;;;7.57;;
7669;SDS011;3877;42.562;27.636;2023-04-01T11:59:14;18.60;;;7.65;;
7669;SDS011;3877;42.562;27.636;2023-04-01T12:01:53;19.40;;;7.15;;
7669;SDS011;3877;42.562;27.636;2023-04-01T12:04:27;22.02;;;8.85;;
7669;SDS011;3877;42.562;27.636;2023-04-01T12:07:01;17.05;;;5.70;;
7669;SDS011;3877;42.562;27.636;2023-04-01T12:09:33;19.17;;;4.97;;
7669;SDS011;3877;42.562;27.636;2023-04-01T12:12:06;13.88;;;4.93;;
7669;SDS011;3877;42.562;27.636;2023-04-01T12:14:36;18.23;;;6.05;;
7669;SDS011;3877;42.562;27.636;2023-04-01T12:17:07;22.70;;;6.40;;
7669;SDS011;3877;42.562;27.636;2023-04-01T12:19:39;18.45;;;5.15;;
7669;SDS011;3877;42.562;27.636;2023-04-01T12:24:53;18.10;;;7.32;;
7669;SDS011;3877;42.562;27.636;2023-04-01T12:33:13;18.83;;;6.65;;
7669;SDS011;3877;42.562;27.636;2023-04-01T12:35:47;16.55;;;6.20;;
7669;SDS011;3877;42.562;27.636;2023-04-01T12:38:20;21.70;;;8.55;;
7669;SDS011;3877;42.562;27.636;2023-04-01T12:43:46;21.50;;;6.00;;
7669;SDS011;3877;42.562;27.636;2023-04-01T12:46:19;16.73;;;6.00;;
7669;SDS011;3877;42.562;27.636;2023-04-01T12:48:56;14.85;;;6.40;;
7669;SDS011;3877;42.562;27.636;2023-04-01T12:54:25;22.17;;;7.65;;
7669;SDS011;3877;42.562;27.636;2023-04-01T12:56:59;27.85;;;10.63;;
7669;SDS011;3877;42.562;27.636;2023-04-01T12:59:48;26.98;;;9.20;;
7669;SDS011;3877;42.562;27.636;2023-04-01T13:02:22;21.52;;;6.88;;
7669;SDS011;3877;42.562;27.636;2023-04-01T13:10:27;18.42;;;7.10;;
7669;SDS011;3877;42.562;27.636;2023-04-01T13:13:00;20.02;;;7.93;;
7669;SDS011;3877;42.562;27.636;2023-04-01T13:15:35;19.17;;;8.13;;
7669;SDS011;3877;42.562;27.636;2023-04-01T13:18:05;22.08;;;9.27;;
7669;SDS011;3877;42.562;27.636;2023-04-01T13:20:36;21.90;;;9.80;;
7669;SDS011;3877;42.562;27.636;2023-04-01T13:23:10;20.17;;;9.82;;
7669;SDS011;3877;42.562;27.636;2023-04-01T13:25:39;20.13;;;8.88;;
7669;SDS011;3877;42.562;27.636;2023-04-01T13:28:10;41.17;;;13.35;;
7669;SDS011;3877;42.562;27.636;2023-04-01T13:30:43;29.80;;;11.90;;
7669;SDS011;3877;42.562;27.636;2023-04-01T13:33:14;20.33;;;7.53;;
7669;SDS011;3877;42.562;27.636;2023-04-01T13:35:44;19.77;;;5.18;;
7669;SDS011;3877;42.562;27.636;2023-04-01T13:38:20;15.50;;;4.40;;
7669;SDS011;3877;42.562;27.636;2023-04-01T13:40:49;15.88;;;4.78;;
7669;SDS011;3877;42.562;27.636;2023-04-01T13:43:19;19.80;;;4.93;;
7669;SDS011;3877;42.562;27.636;2023-04-01T13:45:54;23.38;;;5.45;;
7669;SDS011;3877;42.562;27.636;2023-04-01T13:48:33;20.67;;;5.25;;
7669;SDS011;3877;42.562;27.636;2023-04-01T13:51:11;21.15;;;5.22;;
7669;SDS011;3877;42.562;27.636;2023-04-01T13:53:51;18.52;;;4.70;;
7669;SDS011;3877;42.562;27.636;2023-04-01T13:56:24;22.45;;;5.65;;
7669;SDS011;3877;42.562;27.636;2023-04-01T13:58:58;26.52;;;5.13;;
7669;SDS011;3877;42.562;27.636;2023-04-01T14:01:32;21.65;;;4.97;;
7669;SDS011;3877;42.562;27.636;2023-04-01T14:04:10;19.83;;;4.75;;
7669;SDS011;3877;42.562;27.636;2023-04-01T14:06:49;22.55;;;4.85;;
7669;SDS011;3877;42.562;27.636;2023-04-01T14:12:09;23.95;;;5.53;;
7669;SDS011;3877;42.562;27.636;2023-04-01T14:14:45;19.45;;;4.50;;
7669;SDS011;3877;42.562;27.636;2023-04-01T14:17:26;21.83;;;5.88;;
7669;SDS011;3877;42.562;27.636;2023-04-01T14:22:53;29.75;;;6.28;;
7669;SDS011;3877;42.562;27.636;2023-04-01T14:25:28;24.45;;;5.47;;
7669;SDS011;3877;42.562;27.636;2023-04-01T14:27:58;24.15;;;5.45;;
7669;SDS011;3877;42.562;27.636;2023-04-01T14:30:28;21.83;;;7.00;;
7669;SDS011;3877;42.562;27.636;2023-04-01T14:33:03;26.25;;;5.78;;
7669;SDS011;3877;42.562;27.636;2023-04-01T14:35:33;28.70;;;6.55;;
7669;SDS011;3877;42.562;27.636;2023-04-01T14:40:49;29.92;;;5.82;;
7669;SDS011;3877;42.562;27.636;2023-04-01T14:43:28;24.10;;;5.50;;
7669;SDS011;3877;42.562;27.636;2023-04-01T14:46:09;24.20;;;5.63;;
7669;SDS011;3877;42.562;27.636;2023-04-01T14:48:50;25.80;;;5.35;;
7669;SDS011;3877;42.562;27.636;2023-04-01T14:51:18;29.07;;;5.60;;
7669;SDS011;3877;42.562;27.636;2023-04-01T14:53:52;22.88;;;4.97;;
7669;SDS011;3877;42.562;27.636;2023-04-01T14:59:10;19.30;;;4.60;;
7669;SDS011;3877;42.562;27.636;2023-04-01T15:01:42;16.92;;;4.68;;
7669;SDS011;3877;42.562;27.636;2023-04-01T15:04:18;19.42;;;4.82;;
7669;SDS011;3877;42.562;27.636;2023-04-01T15:06:58;23.33;;;5.35;;
7669;SDS011;3877;42.562;27.636;2023-04-01T15:09:29;20.60;;;4.85;;
7669;SDS011;3877;42.562;27.636;2023-04-01T15:12:01;27.42;;;5.80;;
7669;SDS011;3877;42.562;27.636;2023-04-01T15:14:33;24.00;;;7.07;;
7669;SDS011;3877;42.562;27.636;2023-04-01T15:17:05;21.35;;;5.60;;
7669;SDS011;3877;42.562;27.636;2023-04-01T15:19:43;19.65;;;5.45;;
7669;SDS011;3877;42.562;27.636;2023-04-01T15:25:10;23.75;;;4.85;;
7669;SDS011;3877;42.562;27.636;2023-04-01T15:27:42;20.77;;;4.25;;
7669;SDS011;3877;42.562;27.636;2023-04-01T15:30:17;21.17;;;4.45;;
7669;SDS011;3877;42.562;27.636;2023-04-01T15:32:57;26.10;;;4.63;;
7669;SDS011;3877;42.562;27.636;2023-04-01T15:35:34;26.70;;;4.70;;
7669;SDS011;3877;42.562;27.636;2023-04-01T15:38:08;26.52;;;5.30;;
7669;SDS011;3877;42.562;27.636;2023-04-01T15:40:38;25.58;;;4.70;;
7669;SDS011;3877;42.562;27.636;2023-04-01T15:43:15;20.08;;;5.25;;
7669;SDS011;3877;42.562;27.636;2023-04-01T15:45:49;25.15;;;6.20;;
7669;SDS011;3877;42.562;27.636;2023-04-01T15:48:23;29.30;;;6.30;;
7669;SDS011;3877;42.562;27.636;2023-04-01T15:51:03;29.02;;;6.03;;
7669;SDS011;3877;42.562;27.636;2023-04-01T15:53:47;25.53;;;5.30;;
7669;SDS011;3877;42.562;27.636;2023-04-01T15:56:24;24.80;;;6.25;;
7669;SDS011;3877;42.562;27.636;2023-04-01T15:58:55;25.53;;;5.67;;
7669;SDS011;3877;42.562;27.636;2023-04-01T16:01:27;25.35;;;5.18;;
7669;SDS011;3877;42.562;27.636;2023-04-01T16:04:00;19.50;;;4.47;;
7669;SDS011;3877;42.562;27.636;2023-04-01T16:06:45;25.15;;;5.50;;
7669;SDS011;3877;42.562;27.636;2023-04-01T16:09:28;26.05;;;6.70;;
7669;SDS011;3877;42.562;27.636;2023-04-01T16:12:00;28.23;;;6.73;;
7669;SDS011;3877;42.562;27.636;2023-04-01T16:14:33;27.33;;;6.40;;
7669;SDS011;3877;42.562;27.636;2023-04-01T16:17:05;21.98;;;5.40;;
7669;SDS011;3877;42.562;27.636;2023-04-01T16:19:41;18.52;;;5.35;;
7669;SDS011;3877;42.562;27.636;2023-04-01T16:22:14;18.77;;;5.88;;
7669;SDS011;3877;42.562;27.636;2023-04-01T16:24:44;21.37;;;4.93;;
7669;SDS011;3877;42.562;27.636;2023-04-01T16:27:14;22.40;;;5.83;;
7669;SDS011;3877;42.562;27.636;2023-04-01T16:29:45;25.13;;;5.03;;
7669;SDS011;3877;42.562;27.636;2023-04-01T16:32:29;16.98;;;3.95;;
7669;SDS011;3877;42.562;27.636;2023-04-01T16:35:03;26.20;;;5.07;;
7669;SDS011;3877;42.562;27.636;2023-04-01T16:37:34;21.37;;;5.23;;
7669;SDS011;3877;42.562;27.636;2023-04-01T16:40:10;25.02;;;6.03;;